Language: 


Des rapports , des résumés tant et plus, au choix de chacun....


Données Historiques de Météogheer
Journalier Rapport pour Février 14, 2017 Unitée:  Les deux    Impériale   Métrique
Suivant Jour »
Journalier Hebdomadaire Mensuel Annuel Sur mesure
  Max: Min: Moyenne:
Température: 60.8 °F /  16.0 °C 34.9 °F /  1.6 °C 45.5 °F /  7.5 °C
Point de rosée: 42.1 °F /  5.6 °C 29.8 °F /  -1.2 °C 35.8 °F /  2.1 °C
Humidité: 83% 49% 70%
Vent: 8.7mph /  14.0km/h - 3.5mph /  5.6km/h
Rafales: 10.7mph /  17.2km/h - -
Vent- - SE
Pression: 30.4 in /  1029.0 hPa 30.2 in /  1020.9 hPa -
Pluie: 0 in /  0.0 mm    
Historical Graphs
 
 
Données tabulaires pour Février 14, 2017
Heure Température Point de rosée Pression Vent Vent Rafales Humidité Pluie Taux (Horaire) Conditions
00:02 37.6 °F /  3.1 °C 31.6 °F /  -0.2 °C 30.2in /  1020.9hPa East 5.4mph /  8.7km/h 6.5mph /  10.5km/h 79% 0in /  0.0mm
00:07 37.6 °F /  3.1 °C 31.5 °F /  -0.3 °C 30.2in /  1020.9hPa East 3.6mph /  5.8km/h 6.3mph /  10.1km/h 79% 0in /  0.0mm
00:12 37.2 °F /  2.9 °C 31.1 °F /  -0.5 °C 30.2in /  1020.9hPa Calm   6mph /  9.7km/h 78% 0in /  0.0mm
00:17 37 °F /  2.8 °C 31.3 °F /  -0.4 °C 30.2in /  1020.9hPa East 1.1mph /  1.8km/h 5.6mph /  9.0km/h 79% 0in /  0.0mm
00:22 36.9 °F /  2.7 °C 30.9 °F /  -0.6 °C 30.2in /  1020.9hPa ENE 1.6mph /  2.6km/h 5.8mph /  9.3km/h 79% 0in /  0.0mm
00:27 36.9 °F /  2.7 °C 30.9 °F /  -0.6 °C 30.2in /  1020.9hPa ENE 3.8mph /  6.1km/h 5.8mph /  9.3km/h 79% 0in /  0.0mm
00:32 36.9 °F /  2.7 °C 30.9 °F /  -0.6 °C 30.2in /  1020.9hPa East 4.3mph /  6.9km/h 5.8mph /  9.3km/h 79% 0in /  0.0mm
00:37 36.7 °F /  2.6 °C 30.7 °F /  -0.7 °C 30.2in /  1020.9hPa ENE 2.9mph /  4.7km/h 5.8mph /  9.3km/h 79% 0in /  0.0mm
00:42 36.7 °F /  2.6 °C 30.9 °F /  -0.6 °C 30.2in /  1020.9hPa East 4.9mph /  7.9km/h 5.8mph /  9.3km/h 80% 0in /  0.0mm
00:47 36.3 °F /  2.4 °C 30.6 °F /  -0.8 °C 30.2in /  1020.9hPa Calm   4.9mph /  7.9km/h 79% 0in /  0.0mm
00:52 36.1 °F /  2.3 °C 30.4 °F /  -0.9 °C 30.2in /  1020.9hPa ENE 0.9mph /  1.4km/h 4.9mph /  7.9km/h 79% 0in /  0.0mm
00:57 36.1 °F /  2.3 °C 30.2 °F /  -1.0 °C 30.2in /  1020.9hPa NE 3.1mph /  5.0km/h 4.9mph /  7.9km/h 79% 0in /  0.0mm
01:02 36.1 °F /  2.3 °C 30.6 °F /  -0.8 °C 30.2in /  1020.9hPa ENE 2.9mph /  4.7km/h 4.3mph /  6.9km/h 80% 0in /  0.0mm
01:07 36 °F /  2.2 °C 30.4 °F /  -0.9 °C 30.2in /  1020.9hPa NE 4mph /  6.4km/h 4.7mph /  7.6km/h 80% 0in /  0.0mm
01:12 35.8 °F /  2.1 °C 30 °F /  -1.1 °C 30.2in /  1020.9hPa ENE 5.4mph /  8.7km/h 5.4mph /  8.7km/h 80% 0in /  0.0mm
01:18 35.8 °F /  2.1 °C 30.4 °F /  -0.9 °C 30.2in /  1020.9hPa East 0.9mph /  1.4km/h 5.8mph /  9.3km/h 81% 0in /  0.0mm
01:23 35.8 °F /  2.1 °C 30.4 °F /  -0.9 °C 30.2in /  1020.9hPa NE 2mph /  3.2km/h 5.8mph /  9.3km/h 81% 0in /  0.0mm
01:28 35.8 °F /  2.1 °C 30.7 °F /  -0.7 °C 30.2in /  1020.9hPa East 4.3mph /  6.9km/h 5.4mph /  8.7km/h 82% 0in /  0.0mm
01:33 35.8 °F /  2.1 °C 30.7 °F /  -0.7 °C 30.2in /  1020.9hPa East 3.4mph /  5.5km/h 5.4mph /  8.7km/h 82% 0in /  0.0mm
01:38 35.8 °F /  2.1 °C 30.7 °F /  -0.7 °C 30.2in /  1020.9hPa East 3.1mph /  5.0km/h 5.6mph /  9.0km/h 82% 0in /  0.0mm
01:43 35.8 °F /  2.1 °C 30.7 °F /  -0.7 °C 30.2in /  1020.9hPa East 3.6mph /  5.8km/h 5.6mph /  9.0km/h 82% 0in /  0.0mm
01:48 36 °F /  2.2 °C 30.9 °F /  -0.6 °C 30.2in /  1020.9hPa East 2.9mph /  4.7km/h 4.9mph /  7.9km/h 82% 0in /  0.0mm
01:53 36 °F /  2.2 °C 30.9 °F /  -0.6 °C 30.2in /  1020.9hPa East 4.9mph /  7.9km/h 6mph /  9.7km/h 82% 0in /  0.0mm
01:58 36.1 °F /  2.3 °C 31.5 °F /  -0.3 °C 30.2in /  1020.9hPa ENE 2mph /  3.2km/h 6.5mph /  10.5km/h 83% 0in /  0.0mm
02:03 36.1 °F /  2.3 °C 31.1 °F /  -0.5 °C 30.2in /  1020.9hPa ENE 2mph /  3.2km/h 5.3mph /  8.5km/h 82% 0in /  0.0mm
02:08 36.1 °F /  2.3 °C 31.1 °F /  -0.5 °C 30.2in /  1020.9hPa East 5.8mph /  9.3km/h 5.8mph /  9.3km/h 82% 0in /  0.0mm
02:13 36.1 °F /  2.3 °C 31.1 °F /  -0.5 °C 30.2in /  1020.9hPa East 5.8mph /  9.3km/h 5.8mph /  9.3km/h 82% 0in /  0.0mm
02:18 36.1 °F /  2.3 °C 31.1 °F /  -0.5 °C 30.2in /  1020.9hPa ESE 4.3mph /  6.9km/h 6mph /  9.7km/h 82% 0in /  0.0mm
02:23 36.1 °F /  2.3 °C 31.1 °F /  -0.5 °C 30.2in /  1021.9hPa ENE 5.4mph /  8.7km/h 6mph /  9.7km/h 82% 0in /  0.0mm
02:28 36.1 °F /  2.3 °C 31.1 °F /  -0.5 °C 30.2in /  1021.9hPa East 4.9mph /  7.9km/h 6mph /  9.7km/h 82% 0in /  0.0mm
02:38 36.1 °F /  2.3 °C 31.1 °F /  -0.5 °C 30.2in /  1021.9hPa East 4.3mph /  6.9km/h 7.4mph /  11.9km/h 82% 0in /  0.0mm
02:43 36.1 °F /  2.3 °C 31.1 °F /  -0.5 °C 30.2in /  1021.9hPa East 1.6mph /  2.6km/h 5.8mph /  9.3km/h 82% 0in /  0.0mm
02:48 36.1 °F /  2.3 °C 31.1 °F /  -0.5 °C 30.2in /  1021.9hPa East 3.4mph /  5.5km/h 6.5mph /  10.5km/h 82% 0in /  0.0mm
02:53 36.1 °F /  2.3 °C 31.1 °F /  -0.5 °C 30.2in /  1021.9hPa East 4.3mph /  6.9km/h 6.5mph /  10.5km/h 82% 0in /  0.0mm
02:58 36 °F /  2.2 °C 30.9 °F /  -0.6 °C 30.2in /  1021.9hPa ESE 3.8mph /  6.1km/h 6mph /  9.7km/h 82% 0in /  0.0mm
03:03 36 °F /  2.2 °C 30.9 °F /  -0.6 °C 30.2in /  1021.9hPa East 5.4mph /  8.7km/h 6.3mph /  10.1km/h 82% 0in /  0.0mm
03:08 36 °F /  2.2 °C 30.9 °F /  -0.6 °C 30.2in /  1021.9hPa ESE 5.8mph /  9.3km/h 6.3mph /  10.1km/h 82% 0in /  0.0mm
03:13 36.1 °F /  2.3 °C 31.1 °F /  -0.5 °C 30.2in /  1021.9hPa East 5.6mph /  9.0km/h 6mph /  9.7km/h 82% 0in /  0.0mm
03:18 36.1 °F /  2.3 °C 31.1 °F /  -0.5 °C 30.2in /  1021.9hPa East 4.7mph /  7.6km/h 7.4mph /  11.9km/h 82% 0in /  0.0mm
03:23 36.1 °F /  2.3 °C 30.7 °F /  -0.7 °C 30.2in /  1020.9hPa East 4.3mph /  6.9km/h 7.4mph /  11.9km/h 81% 0in /  0.0mm
03:28 36 °F /  2.2 °C 30.6 °F /  -0.8 °C 30.2in /  1020.9hPa East 5.8mph /  9.3km/h 6mph /  9.7km/h 81% 0in /  0.0mm
03:33 36.1 °F /  2.3 °C 30.7 °F /  -0.7 °C 30.2in /  1020.9hPa ENE 4mph /  6.4km/h 6mph /  9.7km/h 81% 0in /  0.0mm
03:38 36 °F /  2.2 °C 30.6 °F /  -0.8 °C 30.2in /  1021.9hPa NE 6.3mph /  10.1km/h 6.3mph /  10.1km/h 81% 0in /  0.0mm
03:43 36 °F /  2.2 °C 30.6 °F /  -0.8 °C 30.2in /  1021.9hPa ENE 4mph /  6.4km/h 6.3mph /  10.1km/h 81% 0in /  0.0mm
03:48 36 °F /  2.2 °C 30.6 °F /  -0.8 °C 30.2in /  1021.9hPa East 2.9mph /  4.7km/h 7.4mph /  11.9km/h 81% 0in /  0.0mm
03:53 35.8 °F /  2.1 °C 30.4 °F /  -0.9 °C 30.2in /  1020.9hPa ENE 4.5mph /  7.2km/h 7.4mph /  11.9km/h 81% 0in /  0.0mm
03:58 36 °F /  2.2 °C 30.6 °F /  -0.8 °C 30.2in /  1020.9hPa East 6.3mph /  10.1km/h 7.2mph /  11.6km/h 81% 0in /  0.0mm
04:04 35.8 °F /  2.1 °C 30.4 °F /  -0.9 °C 30.2in /  1020.9hPa East 5.6mph /  9.0km/h 7.6mph /  12.2km/h 81% 0in /  0.0mm
04:08 35.8 °F /  2.1 °C 30.4 °F /  -0.9 °C 30.2in /  1020.9hPa East 6.3mph /  10.1km/h 7.6mph /  12.2km/h 81% 0in /  0.0mm
04:14 35.8 °F /  2.1 °C 30.4 °F /  -0.9 °C 30.2in /  1020.9hPa East 3.4mph /  5.5km/h 6.5mph /  10.5km/h 81% 0in /  0.0mm
04:19 35.8 °F /  2.1 °C 30.4 °F /  -0.9 °C 30.2in /  1020.9hPa ESE 4.9mph /  7.9km/h 7.4mph /  11.9km/h 81% 0in /  0.0mm
04:24 35.8 °F /  2.1 °C 30.4 °F /  -0.9 °C 30.2in /  1020.9hPa East 5.4mph /  8.7km/h 7.4mph /  11.9km/h 81% 0in /  0.0mm
04:29 35.8 °F /  2.1 °C 30.4 °F /  -0.9 °C 30.2in /  1020.9hPa East 2.7mph /  4.3km/h 6.7mph /  10.8km/h 81% 0in /  0.0mm
04:34 35.8 °F /  2.1 °C 30.4 °F /  -0.9 °C 30.2in /  1020.9hPa ESE 4.3mph /  6.9km/h 6.7mph /  10.8km/h 81% 0in /  0.0mm
04:39 35.8 °F /  2.1 °C 30.4 °F /  -0.9 °C 30.2in /  1020.9hPa East 6mph /  9.7km/h 6.9mph /  11.1km/h 81% 0in /  0.0mm
04:44 35.4 °F /  1.9 °C 30.4 °F /  -0.9 °C 30.2in /  1020.9hPa East 4.9mph /  7.9km/h 6.9mph /  11.1km/h 81% 0in /  0.0mm
04:49 35.4 °F /  1.9 °C 30.4 °F /  -0.9 °C 30.2in /  1020.9hPa East 2.5mph /  4.0km/h 6mph /  9.7km/h 81% 0in /  0.0mm
04:54 35.4 °F /  1.9 °C 30.4 °F /  -0.9 °C 30.2in /  1020.9hPa ENE 4mph /  6.4km/h 6mph /  9.7km/h 81% 0in /  0.0mm
04:59 35.4 °F /  1.9 °C 30.4 °F /  -0.9 °C 30.2in /  1020.9hPa East 4.3mph /  6.9km/h 6mph /  9.7km/h 81% 0in /  0.0mm
05:04 35.4 °F /  1.9 °C 30.4 °F /  -0.9 °C 30.2in /  1020.9hPa ESE 3.6mph /  5.8km/h 5.8mph /  9.3km/h 82% 0in /  0.0mm
05:09 35.4 °F /  1.9 °C 30.4 °F /  -0.9 °C 30.2in /  1021.9hPa Calm   5.4mph /  8.7km/h 82% 0in /  0.0mm
05:14 35.4 °F /  1.9 °C 30.4 °F /  -0.9 °C 30.2in /  1021.9hPa East 3.4mph /  5.5km/h 4.3mph /  6.9km/h 82% 0in /  0.0mm
05:19 35.2 °F /  1.8 °C 30.2 °F /  -1.0 °C 30.2in /  1021.9hPa Calm   5.4mph /  8.7km/h 82% 0in /  0.0mm
05:24 35.2 °F /  1.8 °C 30.2 °F /  -1.0 °C 30.2in /  1021.9hPa East 4.7mph /  7.6km/h 5.4mph /  8.7km/h 82% 0in /  0.0mm
05:29 35.1 °F /  1.7 °C 30 °F /  -1.1 °C 30.2in /  1021.9hPa Calm   4.9mph /  7.9km/h 82% 0in /  0.0mm
05:34 35.1 °F /  1.7 °C 30 °F /  -1.1 °C 30.2in /  1021.9hPa East 3.8mph /  6.1km/h 4mph /  6.4km/h 82% 0in /  0.0mm
05:39 35.1 °F /  1.7 °C 30 °F /  -1.1 °C 30.2in /  1021.9hPa East 2mph /  3.2km/h 4.3mph /  6.9km/h 82% 0in /  0.0mm
05:44 34.9 °F /  1.6 °C 29.8 °F /  -1.2 °C 30.2in /  1021.9hPa East 3.8mph /  6.1km/h 4.7mph /  7.6km/h 82% 0in /  0.0mm
05:49 34.9 °F /  1.6 °C 30.2 °F /  -1.0 °C 30.2in /  1021.9hPa East 4mph /  6.4km/h 5.6mph /  9.0km/h 83% 0in /  0.0mm
05:54 35.1 °F /  1.7 °C 30.4 °F /  -0.9 °C 30.2in /  1021.9hPa ESE 3.1mph /  5.0km/h 5.8mph /  9.3km/h 83% 0in /  0.0mm
05:59 35.1 °F /  1.7 °C 30.4 °F /  -0.9 °C 30.2in /  1021.9hPa East 5.4mph /  8.7km/h 6.5mph /  10.5km/h 83% 0in /  0.0mm
06:04 35.1 °F /  1.7 °C 30.4 °F /  -0.9 °C 30.2in /  1021.9hPa ESE 4.9mph /  7.9km/h 6.5mph /  10.5km/h 83% 0in /  0.0mm
06:09 35.2 °F /  1.8 °C 30.6 °F /  -0.8 °C 30.2in /  1021.9hPa ESE 4.9mph /  7.9km/h 7.2mph /  11.6km/h 83% 0in /  0.0mm
06:10 35.2 °F /  1.8 °C 30.6 °F /  -0.8 °C 30.2in /  1021.9hPa ESE 6mph /  9.7km/h 7.2mph /  11.6km/h 83% 0in /  0.0mm
06:15 35.2 °F /  1.8 °C 30.6 °F /  -0.8 °C 30.2in /  1021.9hPa East 4.9mph /  7.9km/h 7.2mph /  11.6km/h 83% 0in /  0.0mm
06:20 35.4 °F /  1.9 °C 30.7 °F /  -0.7 °C 30.2in /  1021.9hPa ESE 4mph /  6.4km/h 6.5mph /  10.5km/h 83% 0in /  0.0mm
06:25 35.4 °F /  1.9 °C 30.7 °F /  -0.7 °C 30.2in /  1021.9hPa ESE 4mph /  6.4km/h 5.8mph /  9.3km/h 83% 0in /  0.0mm
06:30 35.4 °F /  1.9 °C 30.7 °F /  -0.7 °C 30.2in /  1021.9hPa East 4.3mph /  6.9km/h 5.8mph /  9.3km/h 83% 0in /  0.0mm
06:35 35.4 °F /  1.9 °C 30.7 °F /  -0.7 °C 30.2in /  1021.9hPa SE 1.6mph /  2.6km/h 7.8mph /  12.6km/h 83% 0in /  0.0mm
06:40 35.4 °F /  1.9 °C 30.4 °F /  -0.9 °C 30.2in /  1021.9hPa ESE 4.7mph /  7.6km/h 7.8mph /  12.6km/h 82% 0in /  0.0mm
06:45 35.2 °F /  1.8 °C 30.2 °F /  -1.0 °C 30.2in /  1021.9hPa ESE 4.9mph /  7.9km/h 6.3mph /  10.1km/h 82% 0in /  0.0mm
06:50 35.2 °F /  1.8 °C 30.2 °F /  -1.0 °C 30.2in /  1021.9hPa ESE 6mph /  9.7km/h 6.3mph /  10.1km/h 82% 0in /  0.0mm
06:55 35.2 °F /  1.8 °C 30.2 °F /  -1.0 °C 30.2in /  1021.9hPa ESE 1.1mph /  1.8km/h 6.5mph /  10.5km/h 82% 0in /  0.0mm
07:00 35.1 °F /  1.7 °C 30 °F /  -1.1 °C 30.2in /  1021.9hPa ESE 1.6mph /  2.6km/h 6.5mph /  10.5km/h 82% 0in /  0.0mm
07:05 35.1 °F /  1.7 °C 30 °F /  -1.1 °C 30.2in /  1021.9hPa ESE 3.6mph /  5.8km/h 4.9mph /  7.9km/h 82% 0in /  0.0mm
07:10 35.2 °F /  1.8 °C 30.6 °F /  -0.8 °C 30.2in /  1021.9hPa Calm   5.6mph /  9.0km/h 83% 0in /  0.0mm
07:15 35.2 °F /  1.8 °C 30.6 °F /  -0.8 °C 30.2in /  1021.9hPa Calm   6mph /  9.7km/h 83% 0in /  0.0mm
07:20 35.2 °F /  1.8 °C 30.6 °F /  -0.8 °C 30.2in /  1021.9hPa East 2.2mph /  3.5km/h 6mph /  9.7km/h 83% 0in /  0.0mm
07:25 35.4 °F /  1.9 °C 30.7 °F /  -0.7 °C 30.2in /  1022.9hPa ESE 3.1mph /  5.0km/h 6mph /  9.7km/h 83% 0in /  0.0mm
07:30 35.4 °F /  1.9 °C 30.6 °F /  -0.8 °C 30.2in /  1022.9hPa ESE 3.8mph /  6.1km/h 5.8mph /  9.3km/h 82% 0in /  0.0mm
07:35 35.4 °F /  1.9 °C 30.6 °F /  -0.8 °C 30.2in /  1022.9hPa ESE 2.5mph /  4.0km/h 5.6mph /  9.0km/h 82% 0in /  0.0mm
07:40 35.4 °F /  1.9 °C 30.6 °F /  -0.8 °C 30.2in /  1022.9hPa ENE 2.7mph /  4.3km/h 5.4mph /  8.7km/h 82% 0in /  0.0mm
07:45 35.4 °F /  1.9 °C 30.6 °F /  -0.8 °C 30.2in /  1022.9hPa East 3.4mph /  5.5km/h 4.7mph /  7.6km/h 82% 0in /  0.0mm
07:50 35.4 °F /  1.9 °C 30.6 °F /  -0.8 °C 30.2in /  1022.9hPa East 3.4mph /  5.5km/h 4.3mph /  6.9km/h 82% 0in /  0.0mm
07:55 35.4 °F /  1.9 °C 30.4 °F /  -0.9 °C 30.2in /  1022.9hPa East 4mph /  6.4km/h 5.8mph /  9.3km/h 81% 0in /  0.0mm
08:00 35.4 °F /  1.9 °C 30.4 °F /  -0.9 °C 30.2in /  1022.9hPa Calm   5.8mph /  9.3km/h 81% 0in /  0.0mm
08:05 35.4 °F /  1.9 °C 30.4 °F /  -0.9 °C 30.2in /  1022.9hPa ESE 2.9mph /  4.7km/h 4.3mph /  6.9km/h 81% 0in /  0.0mm
08:10 35.4 °F /  1.9 °C 30.4 °F /  -0.9 °C 30.2in /  1022.9hPa ESE 2.5mph /  4.0km/h 4.3mph /  6.9km/h 81% 0in /  0.0mm
08:15 35.8 °F /  2.1 °C 30.4 °F /  -0.9 °C 30.2in /  1022.9hPa SSE 0.9mph /  1.4km/h 5.6mph /  9.0km/h 81% 0in /  0.0mm
08:20 36.1 °F /  2.3 °C 31.1 °F /  -0.5 °C 30.2in /  1022.9hPa ESE 1.1mph /  1.8km/h 5.6mph /  9.0km/h 82% 0in /  0.0mm
08:25 36.1 °F /  2.3 °C 30.9 °F /  -0.6 °C 30.2in /  1022.9hPa SE 5.4mph /  8.7km/h 6.5mph /  10.5km/h 81% 0in /  0.0mm
08:30 36.7 °F /  2.6 °C 31.3 °F /  -0.4 °C 30.2in /  1022.9hPa SE 2.7mph /  4.3km/h 7.6mph /  12.2km/h 81% 0in /  0.0mm
08:35 36.9 °F /  2.7 °C 31.5 °F /  -0.3 °C 30.2in /  1022.9hPa ESE 4.9mph /  7.9km/h 7.6mph /  12.2km/h 81% 0in /  0.0mm
08:40 37 °F /  2.8 °C 31.8 °F /  -0.1 °C 30.2in /  1023.9hPa SSE 2.5mph /  4.0km/h 5.8mph /  9.3km/h 81% 0in /  0.0mm
08:45 37.6 °F /  3.1 °C 32 °F /  0.0 °C 30.2in /  1023.9hPa SSE 2.9mph /  4.7km/h 7.4mph /  11.9km/h 80% 0in /  0.0mm
08:50 37.9 °F /  3.3 °C 32.4 °F /  0.2 °C 30.2in /  1023.9hPa SSE 5.8mph /  9.3km/h 7.4mph /  11.9km/h 80% 0in /  0.0mm
08:55 38.5 °F /  3.6 °C 32.4 °F /  0.2 °C 30.2in /  1023.9hPa SSE 3.8mph /  6.1km/h 7.4mph /  11.9km/h 79% 0in /  0.0mm
09:00 38.5 °F /  3.6 °C 32.4 °F /  0.2 °C 30.2in /  1023.9hPa SSE 4.3mph /  6.9km/h 7.4mph /  11.9km/h 78% 0in /  0.0mm
09:05 39 °F /  3.9 °C 32.5 °F /  0.3 °C 30.2in /  1023.9hPa SSE 3.8mph /  6.1km/h 6.3mph /  10.1km/h 77% 0in /  0.0mm
09:10 39.6 °F /  4.2 °C 33.1 °F /  0.6 °C 30.2in /  1023.9hPa SSE 6mph /  9.7km/h 8.7mph /  14.0km/h 77% 0in /  0.0mm
09:16 39.9 °F /  4.4 °C 33.1 °F /  0.6 °C 30.2in /  1023.9hPa SSE 2.5mph /  4.0km/h 8.7mph /  14.0km/h 76% 0in /  0.0mm
09:21 40.1 °F /  4.5 °C 32.7 °F /  0.4 °C 30.2in /  1023.9hPa SSE 5.4mph /  8.7km/h 8.1mph /  13.0km/h 75% 0in /  0.0mm
09:26 40.5 °F /  4.7 °C 32.7 °F /  0.4 °C 30.2in /  1023.9hPa SE 4.3mph /  6.9km/h 6.3mph /  10.1km/h 74% 0in /  0.0mm
09:31 40.8 °F /  4.9 °C 32.7 °F /  0.4 °C 30.2in /  1023.9hPa SE 5.6mph /  9.0km/h 8.7mph /  14.0km/h 73% 0in /  0.0mm
09:36 41.2 °F /  5.1 °C 32.7 °F /  0.4 °C 30.2in /  1023.9hPa SSE 5.8mph /  9.3km/h 8.7mph /  14.0km/h 72% 0in /  0.0mm
09:41 41.4 °F /  5.2 °C 33.1 °F /  0.6 °C 30.3in /  1024.9hPa Calm   8.1mph /  13.0km/h 72% 0in /  0.0mm
09:46 41.9 °F /  5.5 °C 33.4 °F /  0.8 °C 30.3in /  1024.9hPa SSE 5.4mph /  8.7km/h 8.1mph /  13.0km/h 72% 0in /  0.0mm
09:51 42.3 °F /  5.7 °C 33.8 °F /  1.0 °C 30.3in /  1024.9hPa SSE 2mph /  3.2km/h 8.1mph /  13.0km/h 72% 0in /  0.0mm
09:56 42.4 °F /  5.8 °C 33.6 °F /  0.9 °C 30.3in /  1024.9hPa South 2.5mph /  4.0km/h 7.4mph /  11.9km/h 71% 0in /  0.0mm
10:01 42.8 °F /  6.0 °C 33.6 °F /  0.9 °C 30.3in /  1024.9hPa South 5.4mph /  8.7km/h 8.1mph /  13.0km/h 70% 0in /  0.0mm
10:06 43 °F /  6.1 °C 33.4 °F /  0.8 °C 30.3in /  1024.9hPa South 3.8mph /  6.1km/h 8.5mph /  13.7km/h 69% 0in /  0.0mm
10:11 43.3 °F /  6.3 °C 34.2 °F /  1.2 °C 30.3in /  1024.9hPa SSE 0.9mph /  1.4km/h 8.5mph /  13.7km/h 70% 0in /  0.0mm
10:16 43.9 °F /  6.6 °C 34.3 °F /  1.3 °C 30.3in /  1024.9hPa SE 4.3mph /  6.9km/h 8.7mph /  14.0km/h 69% 0in /  0.0mm
10:21 44.2 °F /  6.8 °C 34.5 °F /  1.4 °C 30.3in /  1024.9hPa SSE 6.3mph /  10.1km/h 9.8mph /  15.8km/h 69% 0in /  0.0mm
10:26 44.4 °F /  6.9 °C 34.5 °F /  1.4 °C 30.2in /  1023.9hPa East 3.4mph /  5.5km/h 9.8mph /  15.8km/h 68% 0in /  0.0mm
10:31 45.1 °F /  7.3 °C 35.1 °F /  1.7 °C 30.2in /  1023.9hPa SE 3.6mph /  5.8km/h 8.5mph /  13.7km/h 68% 0in /  0.0mm
10:36 45.7 °F /  7.6 °C 35.2 °F /  1.8 °C 30.2in /  1023.9hPa SE 4.3mph /  6.9km/h 8.5mph /  13.7km/h 67% 0in /  0.0mm
10:41 45.9 °F /  7.7 °C 35.1 °F /  1.7 °C 30.2in /  1023.9hPa SSE 6.5mph /  10.5km/h 7.6mph /  12.2km/h 66% 0in /  0.0mm
10:46 46.2 °F /  7.9 °C 35.4 °F /  1.9 °C 30.2in /  1023.9hPa SSE 2.9mph /  4.7km/h 7.6mph /  12.2km/h 66% 0in /  0.0mm
10:51 46.8 °F /  8.2 °C 35.2 °F /  1.8 °C 30.2in /  1023.9hPa SSE 4mph /  6.4km/h 6.3mph /  10.1km/h 64% 0in /  0.0mm
10:56 47.1 °F /  8.4 °C 36 °F /  2.2 °C 30.3in /  1024.9hPa SSE 4.7mph /  7.6km/h 7.4mph /  11.9km/h 65% 0in /  0.0mm
11:01 47.5 °F /  8.6 °C 35.4 °F /  1.9 °C 30.3in /  1024.9hPa SSE 5.4mph /  8.7km/h 7.4mph /  11.9km/h 63% 0in /  0.0mm
11:06 48 °F /  8.9 °C 35.6 °F /  2.0 °C 30.3in /  1024.9hPa SSE 3.1mph /  5.0km/h 6mph /  9.7km/h 62% 0in /  0.0mm
11:11 48.4 °F /  9.1 °C 35.6 °F /  2.0 °C 30.3in /  1024.9hPa SE 4.3mph /  6.9km/h 6.3mph /  10.1km/h 61% 0in /  0.0mm
11:16 48.7 °F /  9.3 °C 36 °F /  2.2 °C 30.3in /  1024.9hPa SSE 4mph /  6.4km/h 6.3mph /  10.1km/h 61% 0in /  0.0mm
11:21 49.5 °F /  9.7 °C 36.7 °F /  2.6 °C 30.3in /  1024.9hPa SE 3.1mph /  5.0km/h 6mph /  9.7km/h 61% 0in /  0.0mm
11:26 49.8 °F /  9.9 °C 36.9 °F /  2.7 °C 30.3in /  1024.9hPa Calm   5.8mph /  9.3km/h 61% 0in /  0.0mm
11:31 50.4 °F /  10.2 °C 37.4 °F /  3.0 °C 30.3in /  1024.9hPa Calm   5.8mph /  9.3km/h 61% 0in /  0.0mm
11:36 50.7 °F /  10.4 °C 36.9 °F /  2.7 °C 30.3in /  1024.9hPa South 2.7mph /  4.3km/h 5.6mph /  9.0km/h 59% 0in /  0.0mm
11:41 51.3 °F /  10.7 °C 37.4 °F /  3.0 °C 30.2in /  1023.9hPa Calm   4mph /  6.4km/h 59% 0in /  0.0mm
11:46 51.6 °F /  10.9 °C 37.2 °F /  2.9 °C 30.2in /  1023.9hPa SE 6.3mph /  10.1km/h 7.2mph /  11.6km/h 58% 0in /  0.0mm
11:51 51.8 °F /  11.0 °C 37.4 °F /  3.0 °C 30.2in /  1023.9hPa ESE 4.3mph /  6.9km/h 7.2mph /  11.6km/h 58% 0in /  0.0mm
11:56 52.2 °F /  11.2 °C 37.2 °F /  2.9 °C 30.3in /  1024.9hPa SSE 2.9mph /  4.7km/h 6.3mph /  10.1km/h 57% 0in /  0.0mm
12:01 52.9 °F /  11.6 °C 37.9 °F /  3.3 °C 30.3in /  1024.9hPa SE 3.1mph /  5.0km/h 7.8mph /  12.6km/h 57% 0in /  0.0mm
12:06 53.2 °F /  11.8 °C 37.9 °F /  3.3 °C 30.3in /  1024.9hPa SSE 4.3mph /  6.9km/h 7.8mph /  12.6km/h 56% 0in /  0.0mm
12:11 53.2 °F /  11.8 °C 37.4 °F /  3.0 °C 30.2in /  1023.9hPa ESE 3.6mph /  5.8km/h 6mph /  9.7km/h 55% 0in /  0.0mm
12:16 53.2 °F /  11.8 °C 37.6 °F /  3.1 °C 30.2in /  1023.9hPa SE 4.9mph /  7.9km/h 8.5mph /  13.7km/h 55% 0in /  0.0mm
12:21 53.4 °F /  11.9 °C 37.8 °F /  3.2 °C 30.2in /  1023.9hPa ENE 6.5mph /  10.5km/h 8.5mph /  13.7km/h 55% 0in /  0.0mm
12:27 54 °F /  12.2 °C 38.1 °F /  3.4 °C 30.3in /  1024.9hPa South 4.9mph /  7.9km/h 7.4mph /  11.9km/h 55% 0in /  0.0mm
12:32 54.1 °F /  12.3 °C 37.9 °F /  3.3 °C 30.3in /  1024.9hPa SSE 4.9mph /  7.9km/h 7.4mph /  11.9km/h 54% 0in /  0.0mm
12:37 54.3 °F /  12.4 °C 37.6 °F /  3.1 °C 30.3in /  1024.9hPa SSE 6.7mph /  10.8km/h 8.5mph /  13.7km/h 53% 0in /  0.0mm
12:42 54.7 °F /  12.6 °C 37.8 °F /  3.2 °C 30.3in /  1024.9hPa SE 6.3mph /  10.1km/h 9.2mph /  14.8km/h 53% 0in /  0.0mm
12:47 54.9 °F /  12.7 °C 38.1 °F /  3.4 °C 30.3in /  1024.9hPa SSE 3.6mph /  5.8km/h 9.2mph /  14.8km/h 53% 0in /  0.0mm
12:52 55 °F /  12.8 °C 38.3 °F /  3.5 °C 30.3in /  1024.9hPa SSE 6mph /  9.7km/h 8.7mph /  14.0km/h 53% 0in /  0.0mm
12:57 55.6 °F /  13.1 °C 38.7 °F /  3.7 °C 30.3in /  1024.9hPa South 3.4mph /  5.5km/h 8.7mph /  14.0km/h 53% 0in /  0.0mm
13:02 55.8 °F /  13.2 °C 38.8 °F /  3.8 °C 30.3in /  1024.9hPa SSE 6mph /  9.7km/h 8.5mph /  13.7km/h 53% 0in /  0.0mm
13:07 55.9 °F /  13.3 °C 39 °F /  3.9 °C 30.3in /  1024.9hPa SSE 2.7mph /  4.3km/h 7.8mph /  12.6km/h 53% 0in /  0.0mm
13:12 56.3 °F /  13.5 °C 39.4 °F /  4.1 °C 30.2in /  1023.9hPa SSE 3.6mph /  5.8km/h 7.6mph /  12.2km/h 53% 0in /  0.0mm
13:17 56.7 °F /  13.7 °C 39.4 °F /  4.1 °C 30.2in /  1023.9hPa SSE 7.4mph /  11.9km/h 7.4mph /  11.9km/h 52% 0in /  0.0mm
13:22 56.7 °F /  13.7 °C 39.4 °F /  4.1 °C 30.2in /  1023.9hPa SSE 1.6mph /  2.6km/h 10.3mph /  16.6km/h 52% 0in /  0.0mm
13:27 56.8 °F /  13.8 °C 39.4 °F /  4.1 °C 30.3in /  1024.9hPa SSE 4.7mph /  7.6km/h 10.7mph /  17.2km/h 52% 0in /  0.0mm
13:32 57.4 °F /  14.1 °C 40.5 °F /  4.7 °C 30.3in /  1024.9hPa SE 6.3mph /  10.1km/h 10.7mph /  17.2km/h 53% 0in /  0.0mm
13:37 57.2 °F /  14.0 °C 39.2 °F /  4.0 °C 30.3in /  1024.9hPa SE 8.1mph /  13.0km/h 10.7mph /  17.2km/h 51% 0in /  0.0mm
13:42 57 °F /  13.9 °C 39 °F /  3.9 °C 30.3in /  1024.9hPa SE 6.3mph /  10.1km/h 10.7mph /  17.2km/h 51% 0in /  0.0mm
13:47 57.4 °F /  14.1 °C 39.4 °F /  4.1 °C 30.3in /  1024.9hPa SE 3.4mph /  5.5km/h 10.5mph /  16.9km/h 51% 0in /  0.0mm
13:52 57.9 °F /  14.4 °C 40.5 °F /  4.7 °C 30.3in /  1024.9hPa SSE 7.2mph /  11.6km/h 10.1mph /  16.3km/h 52% 0in /  0.0mm
13:57 58.1 °F /  14.5 °C 40.6 °F /  4.8 °C 30.3in /  1024.9hPa SSE 4.7mph /  7.6km/h 10.1mph /  16.3km/h 52% 0in /  0.0mm
14:02 58.6 °F /  14.8 °C 41.2 °F /  5.1 °C 30.3in /  1024.9hPa ESE 5.6mph /  9.0km/h 7.4mph /  11.9km/h 52% 0in /  0.0mm
14:07 58.5 °F /  14.7 °C 40.5 °F /  4.7 °C 30.3in /  1024.9hPa SE 6mph /  9.7km/h 8.1mph /  13.0km/h 51% 0in /  0.0mm
14:12 58.5 °F /  14.7 °C 40.5 °F /  4.7 °C 30.3in /  1024.9hPa SE 6.5mph /  10.5km/h 9.2mph /  14.8km/h 51% 0in /  0.0mm
14:17 58.6 °F /  14.8 °C 40.5 °F /  4.7 °C 30.3in /  1024.9hPa SSE 5.4mph /  8.7km/h 9.2mph /  14.8km/h 51% 0in /  0.0mm
14:22 58.8 °F /  14.9 °C 40.6 °F /  4.8 °C 30.3in /  1024.9hPa SE 5.4mph /  8.7km/h 7.4mph /  11.9km/h 51% 0in /  0.0mm
14:27 59 °F /  15.0 °C 40.5 °F /  4.7 °C 30.3in /  1024.9hPa SE 5.4mph /  8.7km/h 8.7mph /  14.0km/h 50% 0in /  0.0mm
14:32 59 °F /  15.0 °C 40.5 °F /  4.7 °C 30.3in /  1024.9hPa SSE 5.8mph /  9.3km/h 9.8mph /  15.8km/h 50% 0in /  0.0mm
14:37 59.5 °F /  15.3 °C 41.4 °F /  5.2 °C 30.3in /  1024.9hPa SSE 6mph /  9.7km/h 9.8mph /  15.8km/h 51% 0in /  0.0mm
14:42 59.5 °F /  15.3 °C 40.8 °F /  4.9 °C 30.3in /  1024.9hPa South 4mph /  6.4km/h 9.8mph /  15.8km/h 50% 0in /  0.0mm
14:47 59.7 °F /  15.4 °C 40.5 °F /  4.7 °C 30.3in /  1024.9hPa SE 8.7mph /  14.0km/h 9.8mph /  15.8km/h 49% 0in /  0.0mm
14:52 59.9 °F /  15.5 °C 41.2 °F /  5.1 °C 30.3in /  1024.9hPa SSE 2.9mph /  4.7km/h 8.7mph /  14.0km/h 50% 0in /  0.0mm
14:57 60.1 °F /  15.6 °C 41.4 °F /  5.2 °C 30.3in /  1024.9hPa SSE 4.7mph /  7.6km/h 8.7mph /  14.0km/h 50% 0in /  0.0mm
15:02 60.3 °F /  15.7 °C 41.5 °F /  5.3 °C 30.3in /  1024.9hPa South 7.8mph /  12.6km/h 7.8mph /  12.6km/h 50% 0in /  0.0mm
15:07 60.6 °F /  15.9 °C 41.7 °F /  5.4 °C 30.3in /  1024.9hPa SSE 3.8mph /  6.1km/h 7.8mph /  12.6km/h 50% 0in /  0.0mm
15:12 60.8 °F /  16.0 °C 42.1 °F /  5.6 °C 30.3in /  1024.9hPa South 4mph /  6.4km/h 7.8mph /  12.6km/h 50% 0in /  0.0mm
15:17 60.8 °F /  16.0 °C 42.1 °F /  5.6 °C 30.3in /  1024.9hPa South 4.3mph /  6.9km/h 8.5mph /  13.7km/h 50% 0in /  0.0mm
15:22 60.4 °F /  15.8 °C 41.7 °F /  5.4 °C 30.3in /  1026.0hPa South 2.5mph /  4.0km/h 8.5mph /  13.7km/h 50% 0in /  0.0mm
15:27 60.4 °F /  15.8 °C 41.7 °F /  5.4 °C 30.3in /  1026.0hPa South 4.3mph /  6.9km/h 8.7mph /  14.0km/h 50% 0in /  0.0mm
15:32 60.3 °F /  15.7 °C 41.5 °F /  5.3 °C 30.3in /  1026.0hPa SSE 2.7mph /  4.3km/h 8.7mph /  14.0km/h 50% 0in /  0.0mm
15:37 60.1 °F /  15.6 °C 41.4 °F /  5.2 °C 30.3in /  1026.0hPa SE 5.4mph /  8.7km/h 8.7mph /  14.0km/h 50% 0in /  0.0mm
15:42 60.1 °F /  15.6 °C 41.4 °F /  5.2 °C 30.3in /  1026.0hPa SSE 5.6mph /  9.0km/h 8.7mph /  14.0km/h 50% 0in /  0.0mm
15:47 59.9 °F /  15.5 °C 41.2 °F /  5.1 °C 30.3in /  1026.0hPa SSE 7.6mph /  12.2km/h 10.3mph /  16.6km/h 50% 0in /  0.0mm
15:52 59.7 °F /  15.4 °C 41 °F /  5.0 °C 30.3in /  1026.0hPa South 6mph /  9.7km/h 10.3mph /  16.6km/h 50% 0in /  0.0mm
15:57 58.8 °F /  14.9 °C 40.3 °F /  4.6 °C 30.3in /  1026.0hPa SSE 5.6mph /  9.0km/h 10.7mph /  17.2km/h 50% 0in /  0.0mm
16:02 58.1 °F /  14.5 °C 40.1 °F /  4.5 °C 30.3in /  1026.0hPa South 4mph /  6.4km/h 10.7mph /  17.2km/h 51% 0in /  0.0mm
16:07 57.7 °F /  14.3 °C 39.7 °F /  4.3 °C 30.3in /  1026.0hPa Calm   8.7mph /  14.0km/h 51% 0in /  0.0mm
16:12 57.6 °F /  14.2 °C 40.1 °F /  4.5 °C 30.3in /  1026.0hPa SSE 4mph /  6.4km/h 8.7mph /  14.0km/h 52% 0in /  0.0mm
16:18 57.9 °F /  14.4 °C 40.8 °F /  4.9 °C 30.3in /  1026.0hPa SSE 4mph /  6.4km/h 7.8mph /  12.6km/h 53% 0in /  0.0mm
16:23 58.1 °F /  14.5 °C 41.5 °F /  5.3 °C 30.3in /  1026.0hPa SSE 4.7mph /  7.6km/h 7.8mph /  12.6km/h 54% 0in /  0.0mm
16:28 57.9 °F /  14.4 °C 41.4 °F /  5.2 °C 30.3in /  1026.0hPa Calm   8.1mph /  13.0km/h 54% 0in /  0.0mm
16:33 57.6 °F /  14.2 °C 41 °F /  5.0 °C 30.3in /  1026.0hPa South 3.6mph /  5.8km/h 8.1mph /  13.0km/h 54% 0in /  0.0mm
16:38 57.6 °F /  14.2 °C 41.5 °F /  5.3 °C 30.3in /  1026.0hPa SSW 1.3mph /  2.1km/h 6mph /  9.7km/h 55% 0in /  0.0mm
16:43 57.4 °F /  14.1 °C 41.7 °F /  5.4 °C 30.3in /  1026.0hPa SSW 1.3mph /  2.1km/h 6.5mph /  10.5km/h 56% 0in /  0.0mm
16:48 57 °F /  13.9 °C 41.5 °F /  5.3 °C 30.3in /  1026.0hPa Calm   7.2mph /  11.6km/h 56% 0in /  0.0mm
16:53 57 °F /  13.9 °C 41.5 °F /  5.3 °C 30.3in /  1026.0hPa SSE 3.1mph /  5.0km/h 8.7mph /  14.0km/h 56% 0in /  0.0mm
16:58 56.8 °F /  13.8 °C 41.4 °F /  5.2 °C 30.3in /  1026.0hPa SE 4.3mph /  6.9km/h 8.7mph /  14.0km/h 56% 0in /  0.0mm
17:03 56.7 °F /  13.7 °C 41.2 °F /  5.1 °C 30.3in /  1026.0hPa SSE 2.2mph /  3.5km/h 5.4mph /  8.7km/h 56% 0in /  0.0mm
17:08 56.3 °F /  13.5 °C 41.4 °F /  5.2 °C 30.3in /  1026.0hPa Calm   5.4mph /  8.7km/h 57% 0in /  0.0mm
17:13 55.9 °F /  13.3 °C 41 °F /  5.0 °C 30.3in /  1026.0hPa SSE 0.9mph /  1.4km/h 6mph /  9.7km/h 57% 0in /  0.0mm
17:18 55.6 °F /  13.1 °C 40.6 °F /  4.8 °C 30.3in /  1026.0hPa SE 5.6mph /  9.0km/h 7.2mph /  11.6km/h 57% 0in /  0.0mm
17:23 55.2 °F /  12.9 °C 40.3 °F /  4.6 °C 30.3in /  1026.0hPa SE 3.4mph /  5.5km/h 7.2mph /  11.6km/h 57% 0in /  0.0mm
17:28 55 °F /  12.8 °C 40.6 °F /  4.8 °C 30.3in /  1026.0hPa SE 2mph /  3.2km/h 6.5mph /  10.5km/h 58% 0in /  0.0mm
17:33 54.9 °F /  12.7 °C 40.3 °F /  4.6 °C 30.3in /  1026.0hPa SE 4.9mph /  7.9km/h 7.2mph /  11.6km/h 58% 0in /  0.0mm
17:38 54.3 °F /  12.4 °C 40.5 °F /  4.7 °C 30.3in /  1026.0hPa SSE 1.6mph /  2.6km/h 7.2mph /  11.6km/h 59% 0in /  0.0mm
17:43 54 °F /  12.2 °C 39.9 °F /  4.4 °C 30.3in /  1026.0hPa SE 4mph /  6.4km/h 5.8mph /  9.3km/h 59% 0in /  0.0mm
17:48 53.4 °F /  11.9 °C 39.9 °F /  4.4 °C 30.3in /  1026.0hPa Calm   4.5mph /  7.2km/h 60% 0in /  0.0mm
17:53 53.2 °F /  11.8 °C 40.3 °F /  4.6 °C 30.3in /  1026.0hPa East 4mph /  6.4km/h 6.5mph /  10.5km/h 61% 0in /  0.0mm
17:58 53.1 °F /  11.7 °C 40.3 °F /  4.6 °C 30.3in /  1026.0hPa Calm   6.5mph /  10.5km/h 62% 0in /  0.0mm
18:03 52.5 °F /  11.4 °C 39.9 °F /  4.4 °C 30.3in /  1026.0hPa Calm   4.9mph /  7.9km/h 62% 0in /  0.0mm
18:08 52.5 °F /  11.4 °C 39.7 °F /  4.3 °C 30.3in /  1026.0hPa Calm   4.9mph /  7.9km/h 62% 0in /  0.0mm
18:13 52 °F /  11.1 °C 39.7 °F /  4.3 °C 30.3in /  1026.0hPa Calm   3.8mph /  6.1km/h 63% 0in /  0.0mm
18:18 51.4 °F /  10.8 °C 39.2 °F /  4.0 °C 30.3in /  1026.0hPa Calm     63% 0in /  0.0mm
18:23 51.1 °F /  10.6 °C 39.4 °F /  4.1 °C 30.3in /  1026.0hPa Calm   2.9mph /  4.7km/h 64% 0in /  0.0mm
18:28 50.9 °F /  10.5 °C 39.6 °F /  4.2 °C 30.3in /  1026.0hPa SE 4.7mph /  7.6km/h 4.7mph /  7.6km/h 65% 0in /  0.0mm
18:33 50.7 °F /  10.4 °C 39.7 °F /  4.3 °C 30.3in /  1026.0hPa Calm   4.7mph /  7.6km/h 66% 0in /  0.0mm
18:38 50.2 °F /  10.1 °C 39.2 °F /  4.0 °C 30.3in /  1027.0hPa Calm   4.7mph /  7.6km/h 66% 0in /  0.0mm
18:43 49.8 °F /  9.9 °C 38.8 °F /  3.8 °C 30.3in /  1027.0hPa Calm   2mph /  3.2km/h 66% 0in /  0.0mm
18:48 49.6 °F /  9.8 °C 39 °F /  3.9 °C 30.3in /  1027.0hPa ESE 3.1mph /  5.0km/h 3.4mph /  5.5km/h 67% 0in /  0.0mm
18:53 49.8 °F /  9.9 °C 39.7 °F /  4.3 °C 30.3in /  1027.0hPa Calm   4.3mph /  6.9km/h 68% 0in /  0.0mm
18:58 50 °F /  10.0 °C 39.7 °F /  4.3 °C 30.3in /  1027.0hPa SSE 3.4mph /  5.5km/h 4.3mph /  6.9km/h 68% 0in /  0.0mm
19:03 50 °F /  10.0 °C 39.7 °F /  4.3 °C 30.3in /  1027.0hPa Calm   5.4mph /  8.7km/h 68% 0in /  0.0mm
19:08 50 °F /  10.0 °C 39.7 °F /  4.3 °C 30.3in /  1027.0hPa Calm   5.4mph /  8.7km/h 68% 0in /  0.0mm
19:13 50 °F /  10.0 °C 40.3 °F /  4.6 °C 30.3in /  1027.0hPa Calm   4.3mph /  6.9km/h 69% 0in /  0.0mm
19:18 49.8 °F /  9.9 °C 39.9 °F /  4.4 °C 30.3in /  1027.0hPa Calm   2mph /  3.2km/h 69% 0in /  0.0mm
19:23 49.5 °F /  9.7 °C 39.7 °F /  4.3 °C 30.3in /  1026.0hPa Calm   2.9mph /  4.7km/h 69% 0in /  0.0mm
19:28 49.1 °F /  9.5 °C 39.4 °F /  4.1 °C 30.3in /  1026.0hPa Calm   2.9mph /  4.7km/h 69% 0in /  0.0mm
19:33 48.9 °F /  9.4 °C 39.2 °F /  4.0 °C 30.3in /  1026.0hPa Calm   4mph /  6.4km/h 69% 0in /  0.0mm
19:38 48.6 °F /  9.2 °C 39.2 °F /  4.0 °C 30.3in /  1027.0hPa Calm   4mph /  6.4km/h 70% 0in /  0.0mm
19:39 48.6 °F /  9.2 °C 39.2 °F /  4.0 °C 30.3in /  1027.0hPa Calm   2.7mph /  4.3km/h 70% 0in /  0.0mm
19:44 48.4 °F /  9.1 °C 39 °F /  3.9 °C 30.3in /  1027.0hPa Calm     70% 0in /  0.0mm
19:49 48 °F /  8.9 °C 38.7 °F /  3.7 °C 30.3in /  1027.0hPa Calm     70% 0in /  0.0mm
19:54 47.7 °F /  8.7 °C 38.8 °F /  3.8 °C 30.3in /  1026.0hPa Calm     71% 0in /  0.0mm
19:59 47.5 °F /  8.6 °C 38.7 °F /  3.7 °C 30.3in /  1026.0hPa Calm   2.7mph /  4.3km/h 71% 0in /  0.0mm
20:04 47.5 °F /  8.6 °C 38.8 °F /  3.8 °C 30.3in /  1026.0hPa Calm   2.7mph /  4.3km/h 72% 0in /  0.0mm
20:09 47.3 °F /  8.5 °C 38.8 °F /  3.8 °C 30.3in /  1027.0hPa Calm   2.7mph /  4.3km/h 72% 0in /  0.0mm
20:14 47.5 °F /  8.6 °C 39.4 °F /  4.1 °C 30.3in /  1027.0hPa Calm   4mph /  6.4km/h 73% 0in /  0.0mm
20:19 47.8 °F /  8.8 °C 39.6 °F /  4.2 °C 30.3in /  1027.0hPa SSE 3.4mph /  5.5km/h 6mph /  9.7km/h 73% 0in /  0.0mm
20:24 48.4 °F /  9.1 °C 40.1 °F /  4.5 °C 30.3in /  1027.0hPa SSE 3.8mph /  6.1km/h 7.8mph /  12.6km/h 73% 0in /  0.0mm
20:29 48.6 °F /  9.2 °C 40.3 °F /  4.6 °C 30.3in /  1027.0hPa South 5.6mph /  9.0km/h 8.9mph /  14.3km/h 73% 0in /  0.0mm
20:34 48.7 °F /  9.3 °C 40.5 °F /  4.7 °C 30.3in /  1027.0hPa SSE 3.1mph /  5.0km/h 8.9mph /  14.3km/h 73% 0in /  0.0mm
20:39 49.1 °F /  9.5 °C 40.8 °F /  4.9 °C 30.3in /  1026.0hPa SSE 5.4mph /  8.7km/h 7.8mph /  12.6km/h 73% 0in /  0.0mm
20:44 49.1 °F /  9.5 °C 40.8 °F /  4.9 °C 30.3in /  1026.0hPa SSE 5.4mph /  8.7km/h 7.8mph /  12.6km/h 73% 0in /  0.0mm
20:50 49.1 °F /  9.5 °C 40.8 °F /  4.9 °C 30.3in /  1026.0hPa South 4mph /  6.4km/h 8.1mph /  13.0km/h 73% 0in /  0.0mm
20:55 48.9 °F /  9.4 °C 40.6 °F /  4.8 °C 30.3in /  1027.0hPa SSE 5.6mph /  9.0km/h 8.1mph /  13.0km/h 73% 0in /  0.0mm
20:59 48.9 °F /  9.4 °C 40.3 °F /  4.6 °C 30.3in /  1027.0hPa SSE 4.9mph /  7.9km/h 8.7mph /  14.0km/h 72% 0in /  0.0mm
21:05 48.7 °F /  9.3 °C 40.1 °F /  4.5 °C 30.3in /  1027.0hPa SSE 5.4mph /  8.7km/h 8.7mph /  14.0km/h 72% 0in /  0.0mm
21:10 48.7 °F /  9.3 °C 40.1 °F /  4.5 °C 30.4in /  1028.0hPa South 5.6mph /  9.0km/h 7.8mph /  12.6km/h 72% 0in /  0.0mm
21:15 48.6 °F /  9.2 °C 39.9 °F /  4.4 °C 30.4in /  1028.0hPa SSE 6.7mph /  10.8km/h 9.8mph /  15.8km/h 72% 0in /  0.0mm
21:20 48.6 °F /  9.2 °C 39.9 °F /  4.4 °C 30.4in /  1028.0hPa SE 5.8mph /  9.3km/h 9.8mph /  15.8km/h 72% 0in /  0.0mm
21:25 48.6 °F /  9.2 °C 39.9 °F /  4.4 °C 30.4in /  1028.0hPa SSE 4.9mph /  7.9km/h 8.7mph /  14.0km/h 72% 0in /  0.0mm
21:30 48.6 °F /  9.2 °C 39.9 °F /  4.4 °C 30.4in /  1028.0hPa South 2.9mph /  4.7km/h 9.2mph /  14.8km/h 72% 0in /  0.0mm
21:35 48.6 °F /  9.2 °C 39.9 °F /  4.4 °C 30.4in /  1028.0hPa South 4.3mph /  6.9km/h 9.2mph /  14.8km/h 72% 0in /  0.0mm
21:40 48.6 °F /  9.2 °C 39.9 °F /  4.4 °C 30.4in /  1028.0hPa South 6.5mph /  10.5km/h 8.7mph /  14.0km/h 72% 0in /  0.0mm
21:45 48.7 °F /  9.3 °C 40.1 °F /  4.5 °C 30.4in /  1028.0hPa SE 5.4mph /  8.7km/h 7.8mph /  12.6km/h 72% 0in /  0.0mm
21:50 48.9 °F /  9.4 °C 40.3 °F /  4.6 °C 30.4in /  1028.0hPa SSE 4mph /  6.4km/h 7.8mph /  12.6km/h 72% 0in /  0.0mm
21:55 48.9 °F /  9.4 °C 39.9 °F /  4.4 °C 30.4in /  1028.0hPa South 7.6mph /  12.2km/h 7.8mph /  12.6km/h 71% 0in /  0.0mm
22:00 49.1 °F /  9.5 °C 40.1 °F /  4.5 °C 30.4in /  1028.0hPa South 4.3mph /  6.9km/h 8.7mph /  14.0km/h 71% 0in /  0.0mm
22:05 49.1 °F /  9.5 °C 40.1 °F /  4.5 °C 30.4in /  1028.0hPa SSE 4.3mph /  6.9km/h 8.7mph /  14.0km/h 71% 0in /  0.0mm
22:10 48.9 °F /  9.4 °C 39.9 °F /  4.4 °C 30.4in /  1028.0hPa SE 5.8mph /  9.3km/h 8.7mph /  14.0km/h 71% 0in /  0.0mm
22:15 48.9 °F /  9.4 °C 39.6 °F /  4.2 °C 30.4in /  1028.0hPa South 6mph /  9.7km/h 7.4mph /  11.9km/h 70% 0in /  0.0mm
22:20 48.7 °F /  9.3 °C 39.4 °F /  4.1 °C 30.4in /  1028.0hPa South 3.6mph /  5.8km/h 8.1mph /  13.0km/h 70% 0in /  0.0mm
22:25 48.6 °F /  9.2 °C 39.2 °F /  4.0 °C 30.4in /  1028.0hPa South 2.9mph /  4.7km/h 8.1mph /  13.0km/h 70% 0in /  0.0mm
22:30 48.4 °F /  9.1 °C 39 °F /  3.9 °C 30.4in /  1028.0hPa SSE 3.4mph /  5.5km/h 6.7mph /  10.8km/h 70% 0in /  0.0mm
22:35 48 °F /  8.9 °C 38.7 °F /  3.7 °C 30.4in /  1028.0hPa SE 1.1mph /  1.8km/h 5.8mph /  9.3km/h 70% 0in /  0.0mm
22:40 47.7 °F /  8.7 °C 38.5 °F /  3.6 °C 30.4in /  1029.0hPa SSE 2.7mph /  4.3km/h 5.8mph /  9.3km/h 70% 0in /  0.0mm
22:45 47.5 °F /  8.6 °C 38.1 °F /  3.4 °C 30.4in /  1029.0hPa South 5.6mph /  9.0km/h 5.6mph /  9.0km/h 70% 0in /  0.0mm
22:50 47.5 °F /  8.6 °C 38.1 °F /  3.4 °C 30.4in /  1029.0hPa Calm   6.3mph /  10.1km/h 70% 0in /  0.0mm
22:55 47.3 °F /  8.5 °C 38.1 °F /  3.4 °C 30.4in /  1028.0hPa South 1.3mph /  2.1km/h 6.3mph /  10.1km/h 70% 0in /  0.0mm
23:00 46.9 °F /  8.3 °C 37.8 °F /  3.2 °C 30.4in /  1028.0hPa Calm   5.4mph /  8.7km/h 70% 0in /  0.0mm
23:05 46.9 °F /  8.3 °C 38.1 °F /  3.4 °C 30.4in /  1028.0hPa SSE 4.7mph /  7.6km/h 5.8mph /  9.3km/h 71% 0in /  0.0mm
23:10 46.8 °F /  8.2 °C 37.9 °F /  3.3 °C 30.4in /  1028.0hPa Calm   5.8mph /  9.3km/h 71% 0in /  0.0mm
23:16 46.6 °F /  8.1 °C 37.8 °F /  3.2 °C 30.4in /  1028.0hPa Calm   6.3mph /  10.1km/h 71% 0in /  0.0mm
23:21 46.2 °F /  7.9 °C 37.4 °F /  3.0 °C 30.4in /  1028.0hPa SSE 4mph /  6.4km/h 6.3mph /  10.1km/h 71% 0in /  0.0mm
23:26 46 °F /  7.8 °C 37.2 °F /  2.9 °C 30.4in /  1028.0hPa SE 5.8mph /  9.3km/h 5.8mph /  9.3km/h 71% 0in /  0.0mm
23:31 46 °F /  7.8 °C 37.6 °F /  3.1 °C 30.4in /  1028.0hPa SSE 3.6mph /  5.8km/h 5.8mph /  9.3km/h 72% 0in /  0.0mm
23:36 45.9 °F /  7.7 °C 37.4 °F /  3.0 °C 30.4in /  1028.0hPa Calm   4.9mph /  7.9km/h 72% 0in /  0.0mm
23:41 45.9 °F /  7.7 °C 37.2 °F /  2.9 °C 30.4in /  1028.0hPa South 2.5mph /  4.0km/h 5.6mph /  9.0km/h 72% 0in /  0.0mm
23:46 45.9 °F /  7.7 °C 37.6 °F /  3.1 °C 30.4in /  1028.0hPa SE 3.1mph /  5.0km/h 6.5mph /  10.5km/h 73% 0in /  0.0mm
23:51 45.9 °F /  7.7 °C 37.6 °F /  3.1 °C 30.4in /  1028.0hPa Calm   6.5mph /  10.5km/h 73% 0in /  0.0mm
23:56 45.7 °F /  7.6 °C 37.4 °F /  3.0 °C 30.4in /  1029.0hPa SSE 3.6mph /  5.8km/h 6mph /  9.7km/h 73% 0in /  0.0mm
Données Historique de Météo Turbie

Mise a jour : 21/05/2018 17:02:12
Généré par Cumulus 1.9.4 (1099)